createdAt,value
2022-10-09T00:01:14.161Z,1.95
2022-10-09T00:03:43.561Z,2.08
2022-10-09T00:06:13.629Z,2.20
2022-10-09T00:08:41.046Z,1.95
2022-10-09T00:11:09.755Z,2.00
2022-10-09T00:13:37.257Z,2.05
2022-10-09T00:16:06.555Z,2.10
2022-10-09T00:18:34.116Z,2.25
2022-10-09T00:21:01.264Z,2.05
2022-10-09T00:23:28.312Z,2.05
2022-10-09T00:25:57.882Z,2.17
2022-10-09T00:28:26.386Z,2.53
2022-10-09T00:30:53.603Z,2.10
2022-10-09T00:33:21.055Z,1.88
2022-10-09T00:35:48.213Z,2.08
2022-10-09T00:38:15.516Z,2.13
2022-10-09T00:40:42.707Z,2.60
2022-10-09T00:43:17.133Z,2.25
2022-10-09T00:45:55.510Z,2.35
2022-10-09T00:48:23.079Z,2.30
2022-10-09T00:50:53.283Z,2.60
2022-10-09T00:53:22.958Z,2.00
2022-10-09T00:55:50.899Z,2.10
2022-10-09T00:58:18.280Z,2.40
2022-10-09T01:00:45.347Z,2.00
2022-10-09T01:03:12.366Z,2.10
2022-10-09T01:06:12.570Z,2.55
2022-10-09T01:09:06.360Z,2.17
2022-10-09T01:11:51.145Z,2.47
2022-10-09T01:14:28.999Z,2.92
2022-10-09T01:16:58.776Z,2.25
2022-10-09T01:19:31.580Z,2.30
2022-10-09T01:22:22.162Z,2.63
2022-10-09T01:25:01.728Z,3.10
2022-10-09T01:27:30.328Z,2.50
2022-10-09T01:30:02.169Z,2.20
2022-10-09T01:32:37.321Z,2.47
2022-10-09T01:35:06.461Z,2.50
2022-10-09T01:37:35.362Z,2.50
2022-10-09T01:40:05.149Z,2.60
2022-10-09T01:42:32.892Z,2.40
2022-10-09T01:44:59.977Z,2.40
2022-10-09T01:47:27.253Z,2.38
2022-10-09T01:50:00.446Z,2.60
2022-10-09T01:52:52.103Z,2.65
2022-10-09T01:55:27.867Z,2.50
2022-10-09T01:58:13.641Z,2.60
2022-10-09T02:00:46.338Z,2.50
2022-10-09T02:03:16.647Z,2.55
2022-10-09T02:05:47.877Z,2.70
2022-10-09T02:08:19.168Z,2.70
2022-10-09T02:10:49.516Z,2.38
2022-10-09T02:13:16.485Z,3.20
2022-10-09T02:15:52.029Z,2.40
2022-10-09T02:18:40.106Z,2.65
2022-10-09T02:21:31.721Z,2.58
2022-10-09T02:24:01.855Z,2.78
2022-10-09T02:26:28.865Z,2.47
2022-10-09T02:28:57.713Z,2.40
2022-10-09T02:31:30.652Z,2.63
2022-10-09T02:33:59.684Z,2.50
2022-10-09T02:36:27.601Z,2.22
2022-10-09T02:38:55.829Z,2.17
2022-10-09T02:41:23.671Z,2.50
2022-10-09T02:43:51.050Z,2.50
2022-10-09T02:46:18.914Z,2.38
2022-10-09T02:48:45.884Z,3.10
2022-10-09T02:51:12.974Z,2.05
2022-10-09T02:53:39.868Z,2.22
2022-10-09T02:56:07.061Z,2.13
2022-10-09T02:58:35.662Z,2.92
2022-10-09T03:01:03.044Z,2.00
2022-10-09T03:03:29.950Z,2.78
2022-10-09T03:06:09.789Z,1.73
2022-10-09T03:08:38.331Z,1.88
2022-10-09T03:11:05.561Z,2.05
2022-10-09T03:13:32.954Z,2.33
2022-10-09T03:16:08.336Z,1.73
2022-10-09T03:18:36.533Z,2.20
2022-10-09T03:21:12.013Z,2.22
2022-10-09T03:23:39.025Z,1.67
2022-10-09T03:26:08.609Z,2.10
2022-10-09T03:28:37.342Z,1.85
2022-10-09T03:31:04.473Z,2.15
2022-10-09T03:33:32.471Z,2.00
2022-10-09T03:35:59.435Z,2.00
2022-10-09T03:38:26.415Z,2.55
2022-10-09T03:40:53.783Z,1.95
2022-10-09T03:43:20.850Z,1.90
2022-10-09T03:45:47.702Z,1.85
2022-10-09T03:48:15.240Z,2.03
2022-10-09T03:50:42.868Z,2.17
2022-10-09T03:53:11.920Z,2.13
2022-10-09T03:55:39.648Z,1.60
2022-10-09T03:58:07.480Z,1.98
2022-10-09T04:00:35.516Z,1.75
2022-10-09T04:03:02.736Z,2.28
2022-10-09T04:05:32.555Z,2.17
2022-10-09T04:07:59.405Z,2.10
2022-10-09T04:10:26.309Z,2.13
2022-10-09T04:12:53.155Z,2.05
2022-10-09T04:15:20.094Z,1.73
2022-10-09T04:17:47.032Z,1.98
2022-10-09T04:20:14.458Z,2.42
2022-10-09T04:22:41.349Z,1.75
2022-10-09T04:25:08.590Z,2.13
2022-10-09T04:27:35.514Z,2.22
2022-10-09T04:30:02.472Z,2.17
2022-10-09T04:32:29.438Z,1.73
2022-10-09T04:34:56.425Z,1.98
2022-10-09T04:37:23.374Z,1.80
2022-10-09T04:39:50.255Z,2.15
2022-10-09T04:42:17.142Z,1.83
2022-10-09T04:44:44.000Z,2.25
2022-10-09T04:47:11.546Z,1.83
2022-10-09T04:49:38.518Z,1.77
2022-10-09T04:52:05.494Z,1.90
2022-10-09T04:54:32.387Z,2.38
2022-10-09T04:56:59.255Z,1.95
2022-10-09T04:59:26.239Z,2.45
2022-10-09T05:01:53.200Z,2.20
2022-10-09T05:04:20.160Z,2.08
2022-10-09T05:06:47.129Z,2.28
2022-10-09T05:09:14.046Z,2.25
2022-10-09T05:11:42.829Z,1.90
2022-10-09T05:14:10.624Z,2.05
2022-10-09T05:17:00.853Z,2.00
2022-10-09T05:19:24.406Z,2.00
2022-10-09T05:21:51.266Z,1.60
2022-10-09T05:24:18.171Z,2.00
2022-10-09T05:26:45.154Z,2.30
2022-10-09T05:29:12.102Z,2.65
2022-10-09T05:31:39.474Z,2.13
2022-10-09T05:34:06.590Z,2.28
2022-10-09T05:36:33.520Z,1.88
2022-10-09T05:39:03.924Z,1.98
2022-10-09T05:41:30.842Z,2.55
2022-10-09T05:44:02.254Z,1.80
2022-10-09T05:46:31.889Z,2.08
2022-10-09T05:49:01.193Z,1.63
2022-10-09T05:51:30.563Z,2.05
2022-10-09T05:53:58.156Z,1.95
2022-10-09T05:56:27.839Z,2.17
2022-10-09T05:58:56.155Z,1.80
2022-10-09T06:01:25.203Z,1.55
2022-10-09T06:03:55.100Z,1.70
2022-10-09T06:06:24.188Z,1.80
2022-10-09T06:08:51.470Z,1.92
2022-10-09T06:11:31.698Z,1.63
2022-10-09T06:14:00.203Z,1.60
2022-10-09T06:16:30.920Z,1.73
2022-10-09T06:18:58.475Z,1.80
2022-10-09T06:21:29.253Z,1.70
2022-10-09T06:23:59.304Z,1.75
2022-10-09T06:26:29.421Z,1.90
2022-10-09T06:28:57.201Z,1.80
2022-10-09T06:31:30.092Z,2.10
2022-10-09T06:33:59.538Z,1.83
2022-10-09T06:36:29.255Z,2.13
2022-10-09T06:38:56.625Z,1.52
2022-10-09T06:41:25.724Z,2.00
2022-10-09T06:44:01.192Z,1.85
2022-10-09T06:46:34.652Z,2.08
2022-10-09T06:49:02.594Z,1.67
2022-10-09T06:51:30.461Z,1.70
2022-10-09T06:54:01.098Z,1.58
2022-10-09T06:56:30.165Z,1.77
2022-10-09T06:59:00.463Z,1.63
2022-10-09T07:01:32.574Z,1.60
2022-10-09T07:04:02.362Z,1.60
2022-10-09T07:06:34.045Z,2.20
2022-10-09T07:09:04.739Z,1.52
2022-10-09T07:11:34.754Z,1.90
2022-10-09T07:14:03.618Z,1.75
2022-10-09T07:16:33.020Z,1.70
2022-10-09T07:19:03.394Z,1.90
2022-10-09T07:21:30.346Z,2.00
2022-10-09T07:24:00.249Z,2.03
2022-10-09T07:26:29.429Z,1.55
2022-10-09T07:28:57.054Z,1.80
2022-10-09T07:31:24.495Z,1.60
2022-10-09T07:33:52.907Z,1.75
2022-10-09T07:36:20.169Z,1.63
2022-10-09T07:38:52.030Z,2.08
2022-10-09T07:41:19.790Z,1.80
2022-10-09T07:43:46.702Z,1.38
2022-10-09T07:46:15.727Z,1.40
2022-10-09T07:48:43.286Z,1.40
2022-10-09T07:51:11.472Z,1.58
2022-10-09T07:53:38.860Z,1.58
2022-10-09T07:56:06.876Z,1.45
2022-10-09T07:58:34.362Z,1.65
2022-10-09T08:01:08.912Z,1.60
2022-10-09T08:03:36.752Z,1.65
2022-10-09T08:06:04.038Z,1.40
2022-10-09T08:08:30.933Z,1.30
2022-10-09T08:10:57.840Z,1.40
2022-10-09T08:13:24.856Z,1.55
2022-10-09T08:15:51.876Z,1.70
2022-10-09T08:18:18.834Z,1.33
2022-10-09T08:20:45.809Z,1.60
2022-10-09T08:23:12.778Z,1.45
2022-10-09T08:25:39.645Z,1.80
2022-10-09T08:28:06.652Z,1.85
2022-10-09T08:30:33.573Z,1.60
2022-10-09T08:33:00.411Z,1.70
2022-10-09T08:35:29.965Z,1.77
2022-10-09T08:37:59.227Z,1.60
2022-10-09T08:41:02.706Z,1.45
2022-10-09T08:43:35.138Z,2.03
2022-10-09T08:46:07.067Z,2.10
2022-10-09T08:48:39.688Z,2.30
2022-10-09T08:51:13.701Z,2.25
2022-10-09T08:53:48.865Z,2.05
2022-10-09T08:56:16.069Z,2.20
2022-10-09T08:58:44.462Z,2.30
2022-10-09T09:01:38.545Z,1.98
2022-10-09T09:04:38.360Z,1.80
2022-10-09T09:07:49.970Z,2.10
2022-10-09T09:10:46.987Z,1.90
2022-10-09T09:13:48.302Z,2.67
2022-10-09T09:16:19.728Z,2.35
2022-10-09T09:18:52.485Z,2.80
2022-10-09T09:21:44.684Z,2.63
2022-10-09T09:24:19.775Z,2.50
2022-10-09T09:26:54.378Z,2.20
2022-10-09T09:29:24.139Z,2.20
2022-10-09T09:31:58.330Z,2.70
2022-10-09T09:34:37.283Z,2.53
2022-10-09T09:37:04.461Z,2.50
2022-10-09T09:40:30.951Z,2.78
2022-10-09T09:42:23.195Z,2.95
2022-10-09T10:16:37.449Z,2.40
2022-10-09T10:19:06.207Z,2.80
2022-10-09T10:21:49.090Z,2.80
2022-10-09T10:24:22.787Z,2.83
2022-10-09T10:26:59.118Z,2.63
2022-10-09T10:29:41.379Z,2.65
2022-10-09T10:32:29.154Z,2.83
2022-10-09T10:35:14.757Z,2.88
2022-10-09T10:38:03.205Z,2.83
2022-10-09T10:40:34.261Z,2.72
2022-10-09T10:43:10.356Z,3.25
2022-10-09T10:45:43.432Z,2.63
2022-10-09T10:48:19.765Z,2.58
2022-10-09T10:51:08.206Z,3.20
2022-10-09T10:53:45.907Z,3.55
2022-10-09T10:56:29.786Z,2.70
2022-10-09T10:59:13.670Z,2.90
2022-10-09T11:01:54.188Z,2.78
2022-10-09T11:04:36.136Z,2.78
2022-10-09T11:07:11.893Z,3.05
2022-10-09T11:09:43.170Z,2.70
2022-10-09T11:12:29.888Z,2.55
2022-10-09T11:15:21.417Z,2.72
2022-10-09T11:18:02.372Z,2.78
2022-10-09T11:20:47.310Z,2.50
2022-10-09T11:23:47.988Z,2.70
2022-10-09T11:26:23.634Z,2.70
2022-10-09T11:29:00.996Z,2.33
2022-10-09T11:31:54.269Z,2.40
2022-10-09T11:34:34.913Z,2.88
2022-10-09T11:37:07.059Z,3.05
2022-10-09T11:39:35.217Z,3.10
2022-10-09T11:42:02.566Z,2.30
2022-10-09T11:44:35.502Z,2.70
2022-10-09T11:47:09.563Z,2.42
2022-10-09T11:49:46.980Z,2.47
2022-10-09T11:52:50.555Z,2.75
2022-10-09T11:55:29.073Z,3.03
2022-10-09T11:57:56.007Z,2.47
2022-10-09T12:00:36.281Z,2.83
2022-10-09T12:03:06.724Z,2.28
2022-10-09T12:05:39.940Z,2.72
2022-10-09T12:08:19.592Z,3.40
2022-10-09T12:11:00.502Z,3.10
2022-10-09T12:13:47.622Z,2.78
2022-10-09T12:16:35.876Z,2.92
2022-10-09T12:19:12.038Z,3.03
2022-10-09T12:21:47.316Z,2.83
2022-10-09T12:24:21.817Z,3.15
2022-10-09T12:26:50.764Z,2.90
2022-10-09T12:29:26.025Z,2.28
2022-10-09T12:31:56.913Z,2.85
2022-10-09T12:34:31.369Z,2.20
2022-10-09T12:37:12.389Z,2.08
2022-10-09T12:39:39.906Z,2.72
2022-10-09T12:42:13.763Z,2.80
2022-10-09T12:44:40.938Z,2.50
2022-10-09T12:47:14.753Z,2.30
2022-10-09T12:49:41.659Z,3.05
2022-10-09T12:52:16.452Z,2.67
2022-10-09T12:54:44.874Z,2.47
2022-10-09T12:57:15.871Z,2.53
2022-10-09T12:59:44.401Z,2.88
2022-10-09T13:02:15.847Z,3.20
2022-10-09T13:04:53.961Z,2.60
2022-10-09T13:07:22.860Z,2.42
2022-10-09T13:09:49.884Z,2.55
2022-10-09T13:12:16.897Z,2.35
2022-10-09T13:14:46.688Z,2.40
2022-10-09T13:17:25.983Z,2.58
2022-10-09T13:19:55.021Z,2.88
2022-10-09T13:22:24.705Z,2.60
2022-10-09T13:24:54.212Z,2.50
2022-10-09T13:27:28.358Z,2.92
2022-10-09T13:29:56.054Z,3.45
2022-10-09T13:32:24.372Z,2.50
2022-10-09T13:34:55.159Z,2.60
2022-10-09T13:37:24.028Z,2.38
2022-10-09T13:39:55.749Z,2.70
2022-10-09T13:42:25.543Z,2.67
2022-10-09T13:44:52.701Z,3.22
2022-10-09T13:47:24.239Z,2.60
2022-10-09T13:49:51.484Z,2.00
2022-10-09T13:52:18.441Z,3.55
2022-10-09T13:54:45.443Z,2.55
2022-10-09T13:57:12.448Z,2.47
2022-10-09T13:59:39.679Z,2.97
2022-10-09T14:02:06.731Z,2.50
2022-10-09T14:04:33.794Z,2.80
2022-10-09T14:07:00.692Z,2.30
2022-10-09T14:09:27.703Z,2.85
2022-10-09T14:11:54.812Z,2.28
2022-10-09T14:14:22.639Z,2.38
2022-10-09T14:16:50.919Z,2.70
2022-10-09T14:19:18.130Z,2.50
2022-10-09T14:21:46.906Z,2.30
2022-10-09T14:24:14.785Z,2.90
2022-10-09T14:26:41.775Z,2.35
2022-10-09T14:29:09.949Z,2.60
2022-10-09T14:31:37.056Z,2.38
2022-10-09T14:34:04.417Z,4.57
2022-10-09T14:36:31.912Z,3.13
2022-10-09T14:39:02.065Z,2.90
2022-10-09T14:41:33.175Z,2.95
2022-10-09T14:44:02.585Z,3.15
2022-10-09T14:46:30.572Z,2.58
2022-10-09T14:48:58.121Z,2.60
2022-10-09T14:51:27.375Z,2.72
2022-10-09T14:54:00.706Z,3.10
2022-10-09T14:56:28.655Z,3.15
2022-10-09T14:58:55.801Z,2.53
2022-10-09T15:01:23.566Z,2.60
2022-10-09T15:03:50.750Z,2.80
2022-10-09T15:06:20.169Z,2.60
2022-10-09T15:08:47.167Z,2.60
2022-10-09T15:11:14.270Z,3.30
2022-10-09T15:13:41.166Z,2.97
2022-10-09T15:16:11.678Z,3.42
2022-10-09T15:18:39.162Z,2.97
2022-10-09T15:21:12.747Z,3.58
2022-10-09T15:23:40.041Z,2.90
2022-10-09T15:26:08.414Z,3.20
2022-10-09T15:28:37.137Z,2.78
2022-10-09T15:31:06.085Z,3.00
2022-10-09T15:33:33.675Z,2.47
2022-10-09T15:36:00.934Z,3.05
2022-10-09T15:38:27.887Z,2.95
2022-10-09T15:40:56.287Z,3.08
2022-10-09T15:43:26.051Z,3.35
2022-10-09T15:46:00.509Z,3.10
2022-10-09T15:48:27.621Z,2.63
2022-10-09T15:50:54.560Z,3.42
2022-10-09T15:53:24.413Z,2.50
2022-10-09T15:55:53.034Z,2.90
2022-10-09T15:58:20.147Z,2.78
2022-10-09T16:00:49.525Z,3.30
2022-10-09T16:03:18.754Z,3.30
2022-10-09T16:05:48.961Z,3.20
2022-10-09T16:08:19.019Z,3.33
2022-10-09T16:10:49.146Z,3.17
2022-10-09T16:13:16.676Z,4.00
2022-10-09T16:15:45.559Z,3.42
2022-10-09T16:18:12.639Z,3.45
2022-10-09T16:20:40.915Z,3.65
2022-10-09T16:23:09.610Z,3.30
2022-10-09T16:25:38.090Z,3.50
2022-10-09T16:28:05.957Z,3.25
2022-10-09T16:30:33.544Z,3.65
2022-10-09T16:33:00.487Z,3.50
2022-10-09T16:35:28.698Z,3.60
2022-10-09T16:37:55.747Z,2.85
2022-10-09T16:40:32.651Z,2.60
2022-10-09T16:43:09.600Z,3.15
2022-10-09T16:45:36.558Z,2.72
2022-10-09T16:48:04.294Z,2.95
2022-10-09T16:50:31.797Z,3.20
2022-10-09T16:52:58.903Z,2.70
2022-10-09T16:55:27.531Z,3.10
2022-10-09T16:57:55.885Z,3.13
2022-10-09T17:00:22.822Z,2.83
2022-10-09T17:02:49.859Z,3.65
2022-10-09T17:05:16.719Z,2.80
2022-10-09T17:07:43.680Z,2.90
2022-10-09T17:10:10.800Z,2.88
2022-10-09T17:12:37.710Z,2.90
2022-10-09T17:15:05.887Z,2.95
2022-10-09T17:17:32.907Z,3.35
2022-10-09T17:20:00.029Z,3.45
2022-10-09T17:22:26.949Z,3.42
2022-10-09T17:24:54.919Z,2.88
2022-10-09T17:27:21.811Z,3.03
2022-10-09T17:29:48.744Z,2.58
2022-10-09T17:32:15.669Z,3.40
2022-10-09T17:34:43.099Z,3.10
2022-10-09T17:37:10.005Z,3.35
2022-10-09T17:39:36.962Z,3.42
2022-10-09T17:42:04.438Z,3.00
2022-10-09T17:44:32.096Z,3.72
2022-10-09T17:46:59.003Z,3.10
2022-10-09T17:49:25.903Z,4.22
2022-10-09T17:51:54.589Z,3.97
2022-10-09T17:54:21.868Z,3.10
2022-10-09T17:56:48.844Z,3.55
2022-10-09T17:59:15.972Z,3.40
2022-10-09T18:01:44.469Z,3.42
2022-10-09T18:04:15.785Z,3.63
2022-10-09T18:06:43.239Z,3.50
2022-10-09T18:09:10.124Z,3.13
2022-10-09T18:11:37.396Z,3.60
2022-10-09T18:14:04.379Z,3.55
2022-10-09T18:16:36.774Z,3.58
2022-10-09T18:19:07.770Z,3.38
2022-10-09T18:21:35.753Z,3.72
2022-10-09T18:24:02.855Z,3.20
2022-10-09T18:26:29.808Z,3.75
2022-10-09T18:28:58.585Z,3.55
2022-10-09T18:31:25.654Z,3.13
2022-10-09T18:33:53.195Z,2.78
2022-10-09T18:36:23.244Z,3.80
2022-10-09T18:38:55.383Z,3.60
2022-10-09T18:41:23.238Z,2.83
2022-10-09T18:43:51.673Z,3.25
2022-10-09T18:46:21.797Z,3.10
2022-10-09T18:48:49.726Z,3.75
2022-10-09T18:51:20.257Z,3.00
2022-10-09T18:53:52.277Z,3.50
2022-10-09T18:56:21.136Z,3.25
2022-10-09T18:58:51.591Z,3.78
2022-10-09T19:01:19.416Z,3.65
2022-10-09T19:03:49.216Z,3.50
2022-10-09T19:06:19.010Z,3.42
2022-10-09T19:08:46.516Z,3.20
2022-10-09T19:11:14.652Z,3.63
2022-10-09T19:13:43.077Z,3.40
2022-10-09T19:16:10.099Z,3.42
2022-10-09T19:18:37.456Z,3.80
2022-10-09T19:21:04.547Z,3.45
2022-10-09T19:23:31.744Z,3.35
2022-10-09T19:25:59.601Z,3.58
2022-10-09T19:28:31.134Z,3.60
2022-10-09T19:30:58.376Z,3.83
2022-10-09T19:33:25.395Z,3.55
2022-10-09T19:35:55.460Z,3.80
2022-10-09T19:38:23.258Z,3.60
2022-10-09T19:40:50.674Z,3.28
2022-10-09T19:43:19.459Z,3.83
2022-10-09T19:45:49.288Z,3.53
2022-10-09T19:48:17.308Z,3.78
2022-10-09T19:50:45.761Z,3.83
2022-10-09T19:53:13.485Z,3.53
2022-10-09T19:55:40.412Z,3.42
2022-10-09T19:58:07.528Z,3.30
2022-10-09T20:00:40.691Z,3.38
2022-10-09T20:03:07.600Z,3.70
2022-10-09T20:05:34.684Z,3.60
2022-10-09T20:08:01.682Z,3.80
2022-10-09T20:10:28.836Z,3.65
2022-10-09T20:12:55.791Z,3.78
2022-10-09T20:15:22.751Z,3.38
2022-10-09T20:17:50.159Z,3.33
2022-10-09T20:20:17.382Z,3.17
2022-10-09T20:22:44.241Z,3.35
2022-10-09T20:25:11.091Z,4.10
2022-10-09T20:27:38.459Z,4.38
2022-10-09T20:30:05.835Z,3.92
2022-10-09T20:32:36.770Z,3.90
2022-10-09T20:35:05.471Z,3.55
2022-10-09T20:37:32.317Z,3.85
2022-10-09T20:39:59.191Z,4.90
2022-10-09T20:42:26.357Z,4.03
2022-10-09T20:44:53.262Z,4.30
2022-10-09T20:47:20.168Z,3.97
2022-10-09T20:49:48.449Z,4.15
2022-10-09T20:52:15.403Z,3.90
2022-10-09T20:54:42.320Z,3.60
2022-10-09T20:57:09.175Z,3.65
2022-10-09T20:59:36.083Z,3.95
2022-10-09T21:02:03.000Z,4.05
2022-10-09T21:04:31.604Z,3.70
2022-10-09T21:06:58.510Z,4.00
2022-10-09T21:09:29.613Z,3.10
2022-10-09T21:11:59.239Z,4.05
2022-10-09T21:14:26.200Z,3.92
2022-10-09T21:16:53.089Z,3.63
2022-10-09T21:19:19.979Z,4.15
2022-10-09T21:21:50.857Z,3.42
2022-10-09T21:24:18.291Z,3.50
2022-10-09T21:26:47.398Z,3.72
2022-10-09T21:29:15.292Z,3.30
2022-10-09T21:31:42.581Z,3.70
2022-10-09T21:34:09.487Z,3.78
2022-10-09T21:37:01.749Z,3.72
2022-10-09T21:39:30.204Z,3.30
2022-10-09T21:41:57.174Z,3.58
2022-10-09T21:44:24.118Z,3.72
2022-10-09T21:46:51.011Z,3.20
2022-10-09T21:49:26.299Z,3.33
2022-10-09T21:51:53.661Z,3.78
2022-10-09T21:54:20.699Z,3.92
2022-10-09T21:56:47.802Z,4.15
2022-10-09T21:59:14.717Z,3.75
2022-10-09T22:01:41.616Z,4.10
2022-10-09T22:04:08.653Z,4.03
2022-10-09T22:06:35.591Z,4.80
2022-10-09T22:09:02.567Z,5.65
2022-10-09T22:11:29.479Z,5.50
2022-10-09T22:13:56.471Z,5.97
2022-10-09T22:16:23.686Z,5.63
2022-10-09T22:18:50.570Z,6.32
2022-10-09T22:21:18.429Z,6.57
2022-10-09T22:23:45.536Z,7.30
2022-10-09T22:26:17.125Z,7.00
2022-10-09T22:28:45.461Z,6.65
2022-10-09T22:31:22.411Z,7.05
2022-10-09T22:33:51.368Z,6.35
2022-10-09T22:36:19.590Z,6.55
2022-10-09T22:38:46.860Z,6.22
2022-10-09T22:41:16.725Z,6.38
2022-10-09T22:43:46.103Z,6.40
2022-10-09T22:46:16.934Z,6.40
2022-10-09T22:48:44.588Z,5.88
2022-10-09T22:51:14.233Z,6.63
2022-10-09T22:53:42.741Z,6.30
2022-10-09T22:56:25.290Z,6.22
2022-10-09T22:58:53.273Z,5.95
2022-10-09T23:01:31.584Z,6.15
2022-10-09T23:04:04.046Z,6.38
2022-10-09T23:06:31.272Z,6.32
2022-10-09T23:08:58.960Z,6.63
2022-10-09T23:11:26.404Z,6.47
2022-10-09T23:13:55.208Z,6.50
2022-10-09T23:16:23.035Z,6.40
2022-10-09T23:18:50.512Z,7.18
2022-10-09T23:21:20.138Z,7.55
2022-10-09T23:23:47.975Z,6.35
2022-10-09T23:26:18.106Z,6.53
2022-10-09T23:28:53.670Z,7.22
2022-10-09T23:31:21.647Z,6.82
2022-10-09T23:33:48.687Z,6.10
2022-10-09T23:36:18.438Z,7.20
2022-10-09T23:38:46.086Z,6.72
2022-10-09T23:41:15.691Z,6.55
2022-10-09T23:43:44.207Z,6.93
2022-10-09T23:46:19.604Z,7.20
2022-10-09T23:48:47.441Z,6.20
2022-10-09T23:51:15.652Z,5.88
2022-10-09T23:53:43.273Z,5.75
2022-10-09T23:56:23.301Z,6.63
2022-10-09T23:58:51.202Z,6.43
